Time;durP1;ratioP1;P1;durP2;ratioP2;P2;SDS_P1;SDS_P2;PMS_P1;PMS_P2;Temp;Humidity;BMP_temperature;BMP_pressure;BME280_temperature;BME280_humidity;BME280_pressure;Samples;Min_cycle;Max_cycle;Signal;HPM_P1;HPM_P2
2022/07/01 00:01:23;;;;;;;9.88;7.85;;;19.10;73.00;;;;;;5026594;28;20034;-62
2022/07/01 00:03:49;;;;;;;10.73;7.68;;;19.10;73.00;;;;;;5029095;28;20041;-62
2022/07/01 00:06:16;;;;;;;10.35;6.85;;;19.10;72.90;;;;;;5026454;28;20025;-63
2022/07/01 00:08:42;;;;;;;10.02;7.45;;;19.00;72.80;;;;;;5032065;28;20053;-63
2022/07/01 00:11:07;;;;;;;9.55;6.97;;;19.00;72.90;;;;;;5033155;28;20033;-62
2022/07/01 00:13:33;;;;;;;9.88;7.32;;;19.00;72.80;;;;;;5032706;28;20018;-62
2022/07/01 00:15:59;;;;;;;9.77;7.07;;;19.00;72.70;;;;;;5034489;28;20059;-62
2022/07/01 00:18:25;;;;;;;9.45;6.75;;;18.90;72.80;;;;;;5028427;28;20455;-62
2022/07/01 00:20:51;;;;;;;9.48;7.03;;;18.90;72.80;;;;;;5025931;28;20025;-62
2022/07/01 00:23:17;;;;;;;10.07;7.50;;;18.90;72.80;;;;;;5023635;28;20427;-62
2022/07/01 00:25:44;;;;;;;9.45;7.00;;;18.90;72.80;;;;;;5021561;28;20109;-62
2022/07/01 00:28:10;;;;;;;9.80;7.63;;;18.90;72.70;;;;;;5028316;28;20029;-62
2022/07/01 00:30:36;;;;;;;9.65;7.43;;;18.90;72.60;;;;;;5030779;28;20034;-62
2022/07/01 00:33:02;;;;;;;11.35;7.93;;;18.90;72.60;;;;;;5028395;28;20064;-62
2022/07/01 00:35:28;;;;;;;10.48;8.00;;;18.90;72.70;;;;;;5020408;28;20401;-62
2022/07/01 00:37:53;;;;;;;9.88;7.88;;;18.80;72.80;;;;;;5019739;28;20436;-62
2022/07/01 00:40:19;;;;;;;11.63;8.52;;;18.80;72.90;;;;;;5018590;28;20161;-62
2022/07/01 00:42:45;;;;;;;10.70;8.05;;;18.80;73.00;;;;;;5025035;28;20026;-62
2022/07/01 00:45:11;;;;;;;10.32;7.50;;;18.80;72.80;;;;;;5018171;28;20034;-62
2022/07/01 00:47:39;;;;;;;10.93;8.00;;;18.80;72.80;;;;;;5016499;28;20045;-63
2022/07/01 00:50:10;;;;;;;11.00;7.57;;;18.80;72.90;;;;;;5030748;28;20443;-62
2022/07/01 00:52:37;;;;;;;11.35;8.23;;;18.80;73.10;;;;;;5018019;28;20088;-62
2022/07/01 00:55:05;;;;;;;10.60;8.05;;;18.80;73.70;;;;;;5029507;28;20068;-62
2022/07/01 00:57:33;;;;;;;10.27;8.43;;;18.80;73.10;;;;;;5016401;28;20021;-63
2022/07/01 00:59:59;;;;;;;11.63;7.88;;;18.80;73.20;;;;;;5016652;28;20121;-62
2022/07/01 01:02:24;;;;;;;11.05;8.32;;;18.80;73.10;;;;;;5018150;28;20086;-63
2022/07/01 01:04:50;;;;;;;11.00;8.88;;;18.80;73.10;;;;;;5024906;28;20026;-63
2022/07/01 01:07:16;;;;;;;10.88;8.80;;;18.80;73.20;;;;;;5018288;28;20022;-63
2022/07/01 01:09:41;;;;;;;12.85;10.40;;;18.80;73.20;;;;;;5024804;28;20168;-62
2022/07/01 01:12:11;;;;;;;12.73;9.27;;;18.80;73.20;;;;;;5021774;28;20069;-62
2022/07/01 01:14:47;;;;;;;14.60;10.32;;;18.80;73.20;;;;;;5022638;28;20108;-63
2022/07/01 01:17:13;;;;;;;11.75;9.50;;;18.70;73.20;;;;;;5019226;28;20029;-62
2022/07/01 01:19:40;;;;;;;16.17;13.05;;;18.70;73.20;;;;;;5020931;28;20017;-62
2022/07/01 01:22:06;;;;;;;18.00;13.50;;;18.70;73.30;;;;;;5022912;28;20029;-63
2022/07/01 01:24:32;;;;;;;17.60;14.07;;;18.70;73.20;;;;;;5013234;28;20037;-62
2022/07/01 01:26:57;;;;;;;19.63;15.25;;;18.70;73.20;;;;;;5015605;28;20450;-62
2022/07/01 01:29:23;;;;;;;21.35;16.25;;;18.70;73.30;;;;;;5015158;28;20022;-62
2022/07/01 01:31:49;;;;;;;19.15;16.00;;;18.70;73.30;;;;;;5015273;28;20029;-62
2022/07/01 01:34:15;;;;;;;19.83;17.10;;;18.70;73.40;;;;;;5014770;28;20037;-62
2022/07/01 01:36:41;;;;;;;22.50;17.55;;;18.70;73.30;;;;;;5014234;28;20018;-62
2022/07/01 01:41:38;;;;;;;22.23;18.02;;;18.60;73.30;;;;;;5012757;28;20398;-62
2022/07/01 01:44:04;;;;;;;24.00;18.92;;;18.60;73.20;;;;;;5014616;28;20029;-62
2022/07/01 01:46:30;;;;;;;22.60;19.08;;;18.60;73.10;;;;;;5014703;28;20034;-62
2022/07/01 01:48:57;;;;;;;23.67;19.15;;;18.60;73.00;;;;;;5013058;28;20427;-62
2022/07/01 01:51:22;;;;;;;22.25;19.10;;;18.60;73.10;;;;;;5013517;28;20030;-62
2022/07/01 01:53:48;;;;;;;23.13;18.83;;;18.60;73.10;;;;;;5008312;28;20018;-62
2022/07/01 01:56:14;;;;;;;24.13;19.58;;;18.50;73.20;;;;;;5014673;28;20068;-62
2022/07/01 01:58:42;;;;;;;22.73;19.42;;;18.50;73.30;;;;;;5014877;28;20034;-62
2022/07/01 02:01:12;;;;;;;24.45;19.55;;;18.50;73.20;;;;;;5015606;28;20026;-62
2022/07/01 02:03:39;;;;;;;23.27;19.10;;;18.50;73.20;;;;;;5011378;28;20049;-62
2022/07/01 02:06:06;;;;;;;24.10;20.58;;;18.50;73.00;;;;;;5013006;28;20494;-62
2022/07/01 02:08:32;;;;;;;23.45;20.15;;;18.50;73.00;;;;;;5010040;28;20108;-62
2022/07/01 02:10:58;;;;;;;22.80;19.02;;;18.50;73.00;;;;;;5010313;28;20447;-63
2022/07/01 02:13:24;;;;;;;22.10;19.67;;;18.40;73.00;;;;;;5013306;28;20022;-65
2022/07/01 02:15:50;;;;;;;23.88;20.48;;;18.40;73.00;;;;;;5014547;28;20033;-62
2022/07/01 02:18:16;;;;;;;24.33;20.63;;;18.40;73.10;;;;;;5013762;28;20033;-62
2022/07/01 02:20:43;;;;;;;24.70;20.42;;;18.40;73.20;;;;;;5014258;28;20041;-62
2022/07/01 02:23:09;;;;;;;23.88;20.25;;;18.40;73.20;;;;;;5012445;28;20176;-62
2022/07/01 02:25:37;;;;;;;26.17;21.63;;;18.50;73.20;;;;;;5014245;28;20113;-62
2022/07/01 02:28:03;;;;;;;24.20;20.58;;;18.40;73.00;;;;;;5013213;28;20363;-62
2022/07/01 02:30:30;;;;;;;23.83;20.77;;;18.40;73.10;;;;;;5014090;28;20089;-62
2022/07/01 02:32:56;;;;;;;23.50;21.00;;;18.40;73.10;;;;;;5013102;28;20121;-62
2022/07/01 02:35:22;;;;;;;24.23;20.58;;;18.40;73.20;;;;;;5013759;28;20030;-62
2022/07/01 02:37:48;;;;;;;23.65;21.08;;;18.40;73.30;;;;;;5013042;28;20022;-62
2022/07/01 02:40:14;;;;;;;27.48;21.08;;;18.40;73.30;;;;;;5013231;28;20118;-62
2022/07/01 02:42:40;;;;;;;22.25;19.40;;;18.30;73.20;;;;;;5016437;28;20029;-62
2022/07/01 02:45:07;;;;;;;23.83;20.95;;;18.30;73.20;;;;;;5016688;28;20014;-62
2022/07/01 02:47:38;;;;;;;23.42;19.38;;;18.30;73.30;;;;;;5018563;28;20097;-63
2022/07/01 02:50:04;;;;;;;25.55;19.17;;;18.30;73.20;;;;;;5019605;28;20029;-62
2022/07/01 02:52:30;;;;;;;23.33;19.58;;;18.30;73.20;;;;;;5018524;28;20436;-63
2022/07/01 02:54:56;;;;;;;24.40;20.60;;;18.30;73.20;;;;;;5014327;28;20028;-62
2022/07/01 02:57:23;;;;;;;23.27;19.08;;;18.30;73.20;;;;;;5013698;28;20096;-62
2022/07/01 02:59:50;;;;;;;23.00;20.33;;;18.30;73.20;;;;;;5014488;28;20021;-62
2022/07/01 03:02:17;;;;;;;23.73;20.45;;;18.30;73.20;;;;;;5012621;28;20030;-62
2022/07/01 03:04:43;;;;;;;22.65;19.45;;;18.40;73.10;;;;;;5015415;28;20030;-62
2022/07/01 03:07:09;;;;;;;21.30;18.67;;;18.30;73.00;;;;;;5016015;28;20415;-62
2022/07/01 03:09:35;;;;;;;23.15;19.05;;;18.30;73.10;;;;;;5011643;28;20121;-62
2022/07/01 03:12:24;;;;;;;22.95;19.83;;;18.30;73.20;;;;;;5011919;28;20026;-63
2022/07/01 03:14:46;;;;;;;22.30;18.33;;;18.30;73.20;;;;;;5012721;28;20038;-62
2022/07/01 03:17:12;;;;;;;22.27;19.13;;;18.30;73.20;;;;;;5012022;28;20092;-62
2022/07/01 03:19:38;;;;;;;21.35;18.63;;;18.30;73.20;;;;;;5012258;28;20022;-62
2022/07/01 03:22:03;;;;;;;21.45;18.15;;;18.30;73.20;;;;;;5013925;28;20032;-62
2022/07/01 03:24:29;;;;;;;22.73;18.70;;;18.20;73.00;;;;;;5012620;28;20018;-62
2022/07/01 03:26:54;;;;;;;24.33;20.10;;;18.20;73.10;;;;;;5008842;28;20042;-62
2022/07/01 03:29:20;;;;;;;21.48;18.00;;;18.20;73.10;;;;;;5012629;28;20029;-62
2022/07/01 03:31:46;;;;;;;24.10;19.27;;;18.20;73.10;;;;;;5022813;28;20451;-62
2022/07/01 03:34:11;;;;;;;22.38;19.40;;;18.10;72.90;;;;;;5005728;28;20020;-62
2022/07/01 03:36:37;;;;;;;23.33;18.02;;;18.10;72.90;;;;;;5008923;28;20368;-62
2022/07/01 03:39:04;;;;;;;22.85;18.98;;;18.10;72.90;;;;;;5013054;28;20029;-62
2022/07/01 03:41:30;;;;;;;20.25;17.67;;;18.10;72.90;;;;;;5026319;28;20052;-62
2022/07/01 03:43:55;;;;;;;22.45;18.63;;;18.10;72.90;;;;;;5014110;28;20026;-62
2022/07/01 03:46:21;;;;;;;21.65;19.23;;;18.10;72.80;;;;;;5010833;28;21422;-62
2022/07/01 03:48:47;;;;;;;21.67;18.00;;;18.10;72.80;;;;;;5011381;28;20033;-62
2022/07/01 03:51:12;;;;;;;21.88;18.13;;;18.10;72.90;;;;;;5013448;28;20030;-62
2022/07/01 03:56:22;;;;;;;22.10;18.00;;;18.10;73.00;;;;;;5013685;28;20030;-62
2022/07/01 03:58:48;;;;;;;23.65;19.48;;;18.10;73.00;;;;;;5012367;28;20018;-62
2022/07/01 04:01:13;;;;;;;22.25;17.38;;;18.00;72.90;;;;;;5013060;28;20040;-62
2022/07/01 04:03:39;;;;;;;23.88;19.30;;;18.10;73.00;;;;;;5013220;28;20121;-63
2022/07/01 04:06:05;;;;;;;23.27;18.55;;;18.00;72.90;;;;;;5013338;28;20062;-62
2022/07/01 04:08:30;;;;;;;22.33;17.58;;;18.00;73.00;;;;;;5013001;28;20373;-62
2022/07/01 04:10:56;;;;;;;24.70;18.67;;;18.10;73.00;;;;;;5012642;28;20410;-62
2022/07/01 04:13:22;;;;;;;21.05;18.40;;;18.10;72.90;;;;;;5010879;28;20037;-63
2022/07/01 04:15:48;;;;;;;23.73;18.67;;;18.10;73.00;;;;;;5012716;28;20080;-63
2022/07/01 04:18:14;;;;;;;23.92;17.40;;;18.10;73.00;;;;;;5012800;28;20034;-64
2022/07/01 04:20:40;;;;;;;21.10;17.08;;;18.10;72.90;;;;;;5012967;28;20096;-63
2022/07/01 04:23:05;;;;;;;20.70;17.08;;;18.10;72.90;;;;;;5011199;28;20029;-64
2022/07/01 04:25:31;;;;;;;23.00;17.88;;;18.10;72.90;;;;;;5011889;28;20165;-64
2022/07/01 04:27:58;;;;;;;26.15;19.00;;;18.10;72.90;;;;;;5014710;28;20044;-65
2022/07/01 04:30:23;;;;;;;19.88;17.08;;;18.10;73.00;;;;;;5011247;28;20029;-64
2022/07/01 04:32:49;;;;;;;21.63;17.55;;;18.10;72.90;;;;;;5009348;28;20348;-64
2022/07/01 04:35:15;;;;;;;22.77;17.63;;;18.10;72.80;;;;;;5009645;28;20030;-64
2022/07/01 04:37:41;;;;;;;22.35;16.80;;;18.10;72.80;;;;;;5026962;28;20361;-64
2022/07/01 04:40:07;;;;;;;20.20;17.00;;;18.20;72.80;;;;;;5010668;28;20351;-64
2022/07/01 04:42:33;;;;;;;22.05;17.52;;;18.20;72.70;;;;;;5013102;28;20168;-64
2022/07/01 04:44:58;;;;;;;24.13;17.50;;;18.10;72.70;;;;;;5011907;28;20518;-64
2022/07/01 04:47:24;;;;;;;24.08;18.25;;;18.20;72.80;;;;;;5015655;28;20085;-64
2022/07/01 04:49:49;;;;;;;22.83;17.63;;;18.20;72.70;;;;;;5015576;28;20026;-63
2022/07/01 04:52:15;;;;;;;24.48;18.10;;;18.20;72.70;;;;;;5015844;28;20042;-63
2022/07/01 04:54:41;;;;;;;22.05;17.23;;;18.20;72.50;;;;;;5015566;28;20017;-64
2022/07/01 04:57:07;;;;;;;23.58;17.52;;;18.20;72.60;;;;;;5017194;28;20105;-64
2022/07/01 04:59:33;;;;;;;22.73;17.58;;;18.20;72.70;;;;;;5017027;28;20032;-64
2022/07/01 05:01:59;;;;;;;22.38;16.77;;;18.20;72.70;;;;;;5017354;28;20022;-64
2022/07/01 05:04:26;;;;;;;24.25;17.98;;;18.20;72.70;;;;;;5016414;28;20044;-64
2022/07/01 05:06:51;;;;;;;22.38;16.25;;;18.20;72.80;;;;;;5015990;28;20049;-64
2022/07/01 05:09:17;;;;;;;23.02;16.83;;;18.20;72.70;;;;;;5015664;28;20046;-64
2022/07/01 05:11:43;;;;;;;21.30;16.35;;;18.10;72.60;;;;;;5014405;28;20025;-64
2022/07/01 05:14:08;;;;;;;24.30;17.70;;;18.20;72.70;;;;;;5015427;28;20022;-66
2022/07/01 05:16:35;;;;;;;21.05;16.90;;;18.20;72.70;;;;;;5015413;28;20030;-64
2022/07/01 05:22:01;;;;;;;20.73;15.43;;;18.10;72.70;;;;;;5016305;28;20053;-65
2022/07/01 05:24:30;;;;;;;21.63;16.73;;;18.20;72.70;;;;;;5014679;28;20040;-65
2022/07/01 05:26:56;;;;;;;21.20;15.07;;;18.10;72.70;;;;;;5015606;28;20048;-65
2022/07/01 05:29:22;;;;;;;18.85;14.43;;;18.10;72.60;;;;;;5016256;28;20544;-66
2022/07/01 05:31:48;;;;;;;18.88;14.40;;;18.10;73.20;;;;;;5009178;28;20464;-66
2022/07/01 05:34:13;;;;;;;20.80;14.25;;;18.20;72.50;;;;;;5013659;28;20030;-65
2022/07/01 05:36:39;;;;;;;21.50;14.70;;;18.20;72.40;;;;;;5030392;28;20363;-66
2022/07/01 05:39:05;;;;;;;23.17;14.70;;;18.20;72.20;;;;;;5015715;28;20435;-66
2022/07/01 05:41:31;;;;;;;20.67;14.55;;;18.20;72.10;;;;;;5030414;28;20044;-66
2022/07/01 05:43:56;;;;;;;21.90;14.85;;;18.30;72.00;;;;;;5015155;28;20041;-66
2022/07/01 05:46:22;;;;;;;20.42;15.75;;;18.30;71.90;;;;;;5020446;28;20072;-66
2022/07/01 05:48:48;;;;;;;20.02;15.32;;;18.30;71.90;;;;;;5016237;28;20037;-65
2022/07/01 05:51:13;;;;;;;20.30;14.50;;;18.30;71.90;;;;;;5015934;28;20111;-63
2022/07/01 05:53:39;;;;;;;22.00;15.73;;;18.30;72.40;;;;;;5013928;28;20036;-63
2022/07/01 05:56:05;;;;;;;21.33;15.48;;;18.30;71.60;;;;;;5014410;28;20379;-64
2022/07/01 05:58:30;;;;;;;22.02;15.77;;;18.30;71.60;;;;;;5011718;28;20072;-63
2022/07/01 06:00:56;;;;;;;21.25;15.32;;;18.30;71.60;;;;;;5013917;28;20117;-63
2022/07/01 06:03:22;;;;;;;21.77;14.88;;;18.30;71.50;;;;;;5016980;28;20030;-63
2022/07/01 06:05:47;;;;;;;22.08;16.05;;;18.40;71.50;;;;;;5016213;28;20029;-63
2022/07/01 06:08:13;;;;;;;22.42;14.68;;;18.40;71.50;;;;;;5016986;28;20032;-63
2022/07/01 06:10:39;;;;;;;22.13;15.15;;;18.40;71.50;;;;;;5014347;28;20096;-63
2022/07/01 06:13:04;;;;;;;22.00;14.95;;;18.40;71.50;;;;;;5013137;28;20352;-63
2022/07/01 06:15:31;;;;;;;20.88;14.93;;;18.40;71.50;;;;;;5026623;28;20021;-62
2022/07/01 06:17:57;;;;;;;20.73;15.52;;;18.40;71.50;;;;;;5014093;28;20426;-63
2022/07/01 06:20:23;;;;;;;21.63;14.52;;;18.40;71.40;;;;;;5014013;28;20105;-63
2022/07/01 06:22:48;;;;;;;20.60;15.15;;;18.40;71.40;;;;;;5013923;28;20018;-63
2022/07/01 06:25:14;;;;;;;19.88;14.13;;;18.40;71.20;;;;;;5013442;28;20030;-63
2022/07/01 06:27:42;;;;;;;24.95;15.90;;;18.40;71.10;;;;;;5014446;28;20025;-63
2022/07/01 06:30:09;;;;;;;23.90;15.75;;;18.40;71.10;;;;;;5013753;28;20038;-63
2022/07/01 06:32:35;;;;;;;20.23;14.80;;;18.40;71.10;;;;;;5014731;28;20026;-63
2022/07/01 06:35:01;;;;;;;19.92;14.38;;;18.40;71.30;;;;;;5012966;28;20041;-63
2022/07/01 06:37:26;;;;;;;18.98;15.00;;;18.40;71.30;;;;;;5013349;28;20022;-63
2022/07/01 06:39:52;;;;;;;22.73;16.25;;;18.40;71.30;;;;;;5013527;28;20439;-63
2022/07/01 06:42:18;;;;;;;19.10;14.63;;;18.50;71.30;;;;;;5011648;28;20041;-63
2022/07/01 06:44:44;;;;;;;20.23;14.93;;;18.50;71.30;;;;;;5011533;28;20320;-63
2022/07/01 06:47:09;;;;;;;24.20;15.18;;;18.50;71.20;;;;;;5017568;28;20030;-63
2022/07/01 06:49:35;;;;;;;21.27;15.70;;;18.50;71.20;;;;;;5012542;28;20343;-63
2022/07/01 06:52:01;;;;;;;20.02;14.38;;;18.50;71.20;;;;;;5009918;28;20033;-63
2022/07/01 06:54:28;;;;;;;19.70;15.05;;;18.50;71.10;;;;;;5013778;28;20022;-63
2022/07/01 06:56:54;;;;;;;22.40;15.13;;;18.60;71.00;;;;;;5014917;28;20045;-63
2022/07/01 06:59:19;;;;;;;20.85;14.68;;;18.60;70.90;;;;;;5014219;28;20025;-63
2022/07/01 07:01:45;;;;;;;24.10;15.32;;;18.70;70.60;;;;;;5012022;28;20057;-63
2022/07/01 07:04:11;;;;;;;20.83;13.52;;;18.80;70.30;;;;;;5013187;28;20048;-63
2022/07/01 07:06:36;;;;;;;21.15;14.98;;;18.70;70.10;;;;;;5014969;28;20053;-63
2022/07/01 07:09:02;;;;;;;21.95;14.48;;;18.80;70.00;;;;;;5012786;28;22564;-62
2022/07/01 07:11:28;;;;;;;21.63;14.35;;;18.80;69.80;;;;;;5014916;28;20025;-63
2022/07/01 07:13:54;;;;;;;22.27;13.85;;;18.90;69.60;;;;;;5011964;28;20363;-63
2022/07/01 07:16:20;;;;;;;24.67;16.35;;;19.10;69.40;;;;;;5013365;28;20033;-63
2022/07/01 07:18:47;;;;;;;20.30;14.50;;;19.50;68.80;;;;;;5013783;28;20053;-63
2022/07/01 07:21:13;;;;;;;18.25;13.65;;;19.80;67.70;;;;;;5014175;28;20359;-63
2022/07/01 07:23:39;;;;;;;20.33;12.88;;;19.90;67.30;;;;;;5013898;28;20029;-63
2022/07/01 07:26:04;;;;;;;18.05;13.80;;;20.10;66.80;;;;;;5011622;28;20064;-63
2022/07/01 07:28:30;;;;;;;20.80;13.65;;;20.30;66.30;;;;;;5014616;28;20034;-63
2022/07/01 07:30:56;;;;;;;20.73;13.10;;;20.60;65.80;;;;;;5029360;28;20325;-63
2022/07/01 07:33:22;;;;;;;17.67;12.25;;;20.90;65.00;;;;;;5012226;28;20031;-63
2022/07/01 07:35:48;;;;;;;18.85;12.82;;;21.00;64.60;;;;;;5030340;28;20347;-63
2022/07/01 07:38:13;;;;;;;19.50;13.13;;;21.10;64.30;;;;;;5012016;28;20030;-63
2022/07/01 07:40:41;;;;;;;16.40;12.43;;;21.20;63.90;;;;;;5013453;28;20044;-63
2022/07/01 07:43:07;;;;;;;16.95;11.95;;;21.20;63.70;;;;;;5013646;28;20188;-63
2022/07/01 07:45:33;;;;;;;17.45;11.85;;;21.20;63.50;;;;;;5009341;28;20068;-63
2022/07/01 07:47:59;;;;;;;16.80;11.88;;;21.40;63.10;;;;;;5009904;28;20087;-63
2022/07/01 07:50:25;;;;;;;17.98;11.40;;;21.40;62.80;;;;;;5011412;28;20106;-63
2022/07/01 07:52:51;;;;;;;20.38;11.55;;;21.50;62.50;;;;;;4994739;28;20030;-63
2022/07/01 07:55:16;;;;;;;18.10;11.10;;;21.70;62.30;;;;;;5008553;28;20068;-65
2022/07/01 07:57:42;;;;;;;14.57;10.50;;;21.90;61.80;;;;;;5010961;28;20359;-64
2022/07/01 08:00:11;;;;;;;14.23;10.52;;;22.00;61.50;;;;;;5011625;28;20022;-64
2022/07/01 08:02:41;;;;;;;16.27;11.30;;;21.90;61.00;;;;;;5008907;28;20033;-63
2022/07/01 08:05:08;;;;;;;16.17;11.00;;;21.80;61.30;;;;;;5011814;28;20029;-63
2022/07/01 08:07:37;;;;;;;16.63;10.07;;;21.70;61.70;;;;;;5011612;28;20117;-63
2022/07/01 08:10:05;;;;;;;13.63;9.77;;;21.60;61.70;;;;;;5008737;28;20054;-62
2022/07/01 08:12:31;;;;;;;16.85;10.73;;;21.80;61.50;;;;;;5012974;28;20033;-63
2022/07/01 08:14:57;;;;;;;14.57;9.60;;;22.00;60.90;;;;;;5012770;28;20440;-63
2022/07/01 08:17:22;;;;;;;14.73;9.43;;;22.10;60.50;;;;;;5010731;28;20029;-63
2022/07/01 08:19:49;;;;;;;13.45;8.63;;;22.40;59.90;;;;;;5014970;28;20084;-63
2022/07/01 08:22:15;;;;;;;13.07;8.82;;;22.50;59.60;;;;;;5016939;28;20451;-63
2022/07/01 08:24:40;;;;;;;10.75;7.53;;;22.60;59.40;;;;;;5014044;28;20037;-63
2022/07/01 08:27:06;;;;;;;13.90;7.97;;;22.70;59.30;;;;;;5016606;28;20469;-63
2022/07/01 08:29:32;;;;;;;10.75;6.97;;;22.90;59.00;;;;;;5016069;28;20121;-63
2022/07/01 08:31:58;;;;;;;10.93;6.90;;;23.00;58.50;;;;;;5014554;28;20108;-63
2022/07/01 08:34:23;;;;;;;11.70;7.45;;;23.00;58.30;;;;;;5014231;28;20034;-63
2022/07/01 08:36:49;;;;;;;10.90;6.18;;;23.00;58.20;;;;;;5013258;28;20033;-63
2022/07/01 08:39:15;;;;;;;9.38;5.70;;;22.80;57.90;;;;;;5017493;28;20040;-63
2022/07/01 08:41:41;;;;;;;9.80;6.30;;;22.70;58.30;;;;;;5013060;28;20347;-64
2022/07/01 08:44:08;;;;;;;10.38;6.35;;;22.80;58.00;;;;;;5012437;28;20026;-64
2022/07/01 08:46:35;;;;;;;9.15;5.30;;;22.90;57.60;;;;;;5012213;28;20510;-64
2022/07/01 08:49:01;;;;;;;7.93;3.88;;;22.90;57.50;;;;;;5016109;28;20033;-64
2022/07/01 08:51:27;;;;;;;10.45;4.75;;;23.20;57.20;;;;;;5016495;28;20057;-64
2022/07/01 08:53:52;;;;;;;9.98;4.10;;;23.40;56.40;;;;;;5016305;28;20058;-63
2022/07/01 08:59:02;;;;;;;7.85;3.15;;;23.60;56.00;;;;;;5017614;28;20112;-64
2022/07/01 09:01:28;;;;;;;7.25;3.05;;;23.90;55.80;;;;;;5017812;28;20045;-64
2022/07/01 09:03:56;;;;;;;7.40;3.28;;;24.00;55.20;;;;;;5017333;28;20022;-64
2022/07/01 09:06:26;;;;;;;6.70;2.65;;;24.20;54.90;;;;;;5017056;28;20455;-64
2022/07/01 09:08:52;;;;;;;6.38;2.55;;;24.10;54.40;;;;;;5015751;28;20045;-64
2022/07/01 09:11:23;;;;;;;7.32;2.30;;;23.90;54.50;;;;;;5015994;28;20529;-64
2022/07/01 09:14:06;;;;;;;6.75;2.78;;;23.60;54.40;;;;;;5017570;28;20105;-63
2022/07/01 09:16:43;;;;;;;5.68;1.95;;;23.40;54.50;;;;;;5017218;28;20048;-64
2022/07/01 09:19:10;;;;;;;5.97;2.47;;;23.10;54.60;;;;;;5016292;28;20103;-64
2022/07/01 09:21:36;;;;;;;7.22;2.83;;;22.70;55.30;;;;;;5017082;28;20029;-64
2022/07/01 09:24:29;;;;;;;6.57;2.58;;;22.50;55.40;;;;;;5017230;28;20486;-64
2022/07/01 09:26:58;;;;;;;6.40;1.90;;;22.50;55.20;;;;;;5015289;28;20029;-64
2022/07/01 09:29:34;;;;;;;7.20;2.38;;;22.60;55.10;;;;;;5015890;28;20025;-64
2022/07/01 09:32:02;;;;;;;11.10;2.25;;;22.80;55.00;;;;;;5010780;28;20080;-63
2022/07/01 09:34:39;;;;;;;8.52;2.42;;;22.80;54.90;;;;;;5016293;28;20026;-63
2022/07/01 09:37:05;;;;;;;6.63;2.20;;;22.80;54.50;;;;;;5013337;28;20328;-63
2022/07/01 09:39:45;;;;;;;5.75;2.13;;;23.00;54.50;;;;;;5011109;28;20026;-64
2022/07/01 09:42:11;;;;;;;6.45;2.20;;;23.40;53.80;;;;;;5013287;28;20030;-64
2022/07/01 09:44:54;;;;;;;6.60;1.95;;;23.70;52.80;;;;;;5014330;28;20040;-64
2022/07/01 09:47:23;;;;;;;4.65;1.52;;;24.20;52.40;;;;;;5023651;28;20362;-64
2022/07/01 09:49:50;;;;;;;4.90;1.65;;;24.30;51.20;;;;;;5015130;28;20037;-63
2022/07/01 09:52:16;;;;;;;6.45;1.40;;;24.20;51.00;;;;;;5015102;28;20026;-64
2022/07/01 09:54:47;;;;;;;5.32;1.73;;;24.10;50.90;;;;;;5015889;28;20458;-64
2022/07/01 09:57:16;;;;;;;5.43;1.70;;;24.20;50.90;;;;;;5015231;28;20033;-64
2022/07/01 09:59:42;;;;;;;4.45;1.70;;;24.30;50.50;;;;;;5012960;28;20092;-64
2022/07/01 10:02:09;;;;;;;3.05;1.40;;;24.20;50.20;;;;;;5013391;28;20026;-64
2022/07/01 10:04:37;;;;;;;6.13;1.65;;;24.00;50.40;;;;;;5015670;28;20030;-63
2022/07/01 10:07:28;;;;;;;5.82;1.60;;;23.90;50.70;;;;;;5010614;28;20033;-64
2022/07/01 10:09:59;;;;;;;3.70;1.40;;;23.80;50.50;;;;;;5010817;28;20050;-63
2022/07/01 10:12:38;;;;;;;3.75;1.40;;;23.60;50.70;;;;;;5011925;28;20034;-63
2022/07/01 10:15:09;;;;;;;3.65;1.38;;;23.50;50.40;;;;;;5009151;28;20030;-63
2022/07/01 10:17:40;;;;;;;3.72;1.52;;;23.60;50.50;;;;;;5013005;28;20058;-63
2022/07/01 10:20:07;;;;;;;;;;;23.60;50.60;;;;;;5016136;28;20038;-63
2022/07/01 10:22:36;;;;;;;4.95;1.83;;;23.50;50.80;;;;;;5011401;28;19909;-63
2022/07/01 10:25:35;;;;;;;5.15;1.50;;;23.50;50.80;;;;;;5015332;28;20040;-64
2022/07/01 10:28:43;;;;;;;4.40;1.50;;;23.40;50.80;;;;;;5013938;28;20043;-63
2022/07/01 10:31:15;;;;;;;3.75;1.40;;;23.70;50.20;;;;;;5009758;28;20030;-64
2022/07/01 10:33:50;;;;;;;4.65;1.83;;;24.00;50.00;;;;;;5013136;28;20359;-64
2022/07/01 10:36:22;;;;;;;6.45;1.70;;;24.00;50.00;;;;;;5005218;28;20030;-63
2022/07/01 10:39:00;;;;;;;6.35;1.50;;;24.10;49.20;;;;;;5013099;28;20105;-64
2022/07/01 10:41:27;;;;;;;3.80;1.25;;;24.40;48.80;;;;;;5005930;28;20026;-64
2022/07/01 10:43:54;;;;;;;5.18;1.60;;;24.40;48.70;;;;;;5014562;28;20344;-64
2022/07/01 10:46:45;;;;;;;2.85;1.48;;;24.20;48.80;;;;;;5013790;28;20034;-63
2022/07/01 10:49:19;;;;;;;2.83;1.17;;;24.10;49.00;;;;;;5014342;28;20076;-64
2022/07/01 10:51:50;;;;;;;3.20;1.20;;;24.20;49.10;;;;;;5012355;28;20038;-64
2022/07/01 10:54:34;;;;;;;2.58;0.95;;;24.50;48.70;;;;;;5011352;28;20114;-65
2022/07/01 10:57:15;;;;;;;4.85;1.30;;;24.90;47.80;;;;;;5012662;28;21310;-65
2022/07/01 10:59:42;;;;;;;4.80;1.40;;;25.00;47.70;;;;;;5007120;28;20029;-64
2022/07/01 11:02:16;;;;;;;3.72;1.52;;;24.90;47.70;;;;;;5014019;28;20040;-65
2022/07/01 11:04:41;;;;;;;3.10;1.50;;;25.10;47.30;;;;;;5011030;28;20434;-64
2022/07/01 11:07:08;;;;;;;3.08;1.20;;;25.30;47.30;;;;;;5012029;28;20033;-68
2022/07/01 11:09:35;;;;;;;4.53;1.60;;;25.20;46.80;;;;;;5013088;28;20050;-67
2022/07/01 11:12:01;;;;;;;3.95;1.30;;;25.30;45.90;;;;;;4997914;28;20049;-67
2022/07/01 11:14:28;;;;;;;4.10;1.70;;;24.90;46.00;;;;;;5028921;28;20026;-68
2022/07/01 11:16:57;;;;;;;4.40;1.55;;;24.40;46.20;;;;;;5025018;28;20137;-65
2022/07/01 11:19:24;;;;;;;4.55;1.63;;;24.10;46.90;;;;;;5009219;28;20045;-66
2022/07/01 11:21:53;;;;;;;3.30;1.30;;;23.90;47.10;;;;;;5014587;28;20057;-66
2022/07/01 11:24:22;;;;;;;3.03;1.20;;;24.00;47.30;;;;;;5008550;28;20018;-66
2022/07/01 11:26:49;;;;;;;4.32;1.60;;;24.30;47.10;;;;;;5012697;28;20026;-66
2022/07/01 11:29:24;;;;;;;3.47;1.23;;;24.30;46.80;;;;;;5012284;28;20030;-66
2022/07/01 11:31:49;;;;;;;5.68;1.65;;;24.20;47.00;;;;;;5013605;28;20030;-66
2022/07/01 11:34:16;;;;;;;6.20;1.70;;;24.30;47.00;;;;;;5011852;28;20088;-67
2022/07/01 11:39:35;;;;;;;4.95;1.52;;;24.90;45.80;;;;;;5009838;28;20080;-67
2022/07/01 11:42:06;;;;;;;5.00;1.40;;;25.30;45.70;;;;;;5013755;28;20108;-68
2022/07/01 11:44:42;;;;;;;4.43;1.58;;;25.30;45.30;;;;;;5013840;28;20093;-67
2022/07/01 11:47:12;;;;;;;3.33;1.30;;;25.30;45.30;;;;;;5009759;28;20030;-67
2022/07/01 11:49:48;;;;;;;2.53;1.17;;;25.10;45.40;;;;;;5016371;28;20033;-66
2022/07/01 11:52:15;;;;;;;3.53;1.23;;;25.10;45.00;;;;;;5011301;28;20113;-66
2022/07/01 11:54:45;;;;;;;2.85;1.00;;;25.20;45.20;;;;;;5010879;28;20467;-66
2022/07/01 11:57:17;;;;;;;4.30;1.40;;;25.20;45.00;;;;;;5018308;28;20034;-66
2022/07/01 11:59:45;;;;;;;2.97;1.10;;;25.10;44.90;;;;;;5016309;28;20057;-66
2022/07/01 12:02:13;;;;;;;3.78;1.50;;;25.00;45.30;;;;;;5014892;28;20347;-66
2022/07/01 12:04:40;;;;;;;5.22;1.20;;;24.90;45.50;;;;;;5017315;28;20084;-66
2022/07/01 12:07:07;;;;;;;4.32;1.23;;;25.00;45.40;;;;;;5015594;28;20391;-66
2022/07/01 12:09:34;;;;;;;5.18;1.30;;;25.00;45.50;;;;;;5017483;28;20113;-66
2022/07/01 12:12:01;;;;;;;4.68;1.02;;;24.90;45.30;;;;;;5015057;28;20412;-68
2022/07/01 12:14:30;;;;;;;4.13;1.30;;;24.90;45.50;;;;;;5014042;28;20033;-66
2022/07/01 12:16:58;;;;;;;4.28;1.38;;;24.90;45.50;;;;;;5015343;28;20217;-64
2022/07/01 12:19:35;;;;;;;3.13;1.10;;;24.90;45.30;;;;;;5015776;28;20026;-64
2022/07/01 12:22:04;;;;;;;4.03;1.23;;;25.00;45.20;;;;;;5017926;28;20045;-64
2022/07/01 12:24:30;;;;;;;2.78;1.15;;;25.00;45.20;;;;;;5015837;28;20041;-65
2022/07/01 12:26:58;;;;;;;4.40;1.55;;;25.00;45.40;;;;;;5017275;28;20022;-65
2022/07/01 12:29:45;;;;;;;4.30;0.77;;;25.00;45.40;;;;;;5013292;28;20041;-64
2022/07/01 12:32:13;;;;;;;3.72;1.35;;;24.90;45.50;;;;;;5013167;28;20042;-64
2022/07/01 12:34:50;;;;;;;5.43;1.45;;;24.80;45.60;;;;;;5012338;28;20213;-64
2022/07/01 12:37:20;;;;;;;6.18;1.92;;;24.70;45.50;;;;;;5014532;28;20037;-64
2022/07/01 12:39:51;;;;;;;3.47;1.20;;;24.70;45.10;;;;;;5028612;28;20028;-64
2022/07/01 12:42:27;;;;;;;2.38;1.05;;;24.60;45.20;;;;;;5017985;28;20029;-64
2022/07/01 12:44:57;;;;;;;4.07;1.20;;;24.40;45.20;;;;;;5015394;28;20037;-65
2022/07/01 12:47:36;;;;;;;3.73;1.30;;;24.40;45.70;;;;;;5017403;28;20037;-63
2022/07/01 12:50:20;;;;;;;3.75;1.33;;;24.40;45.90;;;;;;5007810;28;20180;-64
2022/07/01 12:53:06;;;;;;;3.95;1.40;;;24.40;46.00;;;;;;5017285;28;20034;-66